Terminal Aerodrome Forecast
Issued by NWS

Home | Current Version | Previous Version | Graphics & Text | Print | Product List | Glossary On
Versions: 1 2 3 4 5 6 7 8 9 10 11 12 13 14 15 16 17 18 19 20 21 22 23 24 25 26 27
509
FTUS43 KABR 152037 AAA
TAFATY
TAF AMD
KATY 152037Z 1521/1618 32017G25KT P6SM OVC018
     FM152130 33016G22KT P6SM SCT020
     FM152300 33009KT P6SM FEW025 FEW250
     FM160400 01005KT P6SM FEW250
     FM161400 14012KT P6SM BKN200
     FM161600 15020G29KT P6SM BKN200=

USA.gov is the U.S. government's official web portal to all federal, state and local government web resources and services.